METAR Formatted Surface Weather Observation
Issued by NWS Spokane, WA

Home | Current Version | Previous Version | Text Only | Print | Product List | Glossary On
Versions: 1
168
SAUS46 KOTX 261715
MTRGEG

METAR KGEG 261653Z 03006KT 10SM SCT160 BKN200 21/06 A3001 RMK
     AO2 SLP149 T02110061



USA.gov is the U.S. government's official web portal to all federal, state and local government web resources and services.